Pagrindinis puslapis
METAR-TAF:

METAR-TAF

Oro uostai :

St. George, Aliaska, Jungtinės Amerikos Valstijos

platuma: 56-34-43N, ilguma: 169-39-41W, Aukštis: 38 m

Dabartinis oras

Ataskaita buvo paskelbta 1 valandą ir 0 minutes, ne 22:53 UTC
Vėjas 14 kt iš Pietų/Pietryčių
Temperatūra 12°C
Drėgmė 100%
Slėgis 1001 hPa
Matomumas: 12.9 km
Apsiniaukę ne aukštis 200 ft

METAR: PAPB 012253Z AUTO 16014KT 8SM OVC002 12/12 A2957 RMK AO2 SLP000 P0001 T01220117 TSNO

Laikas: 15:53 (23:53 UTC)


TAF: trūkstamas

Orai ataskaitas ir orų prognozės (METAR, TAF).

turimą stotys yra geltonos ir raudonos taškus žemėlapyje.

Perkelti pele per norėdami pamatyti stoties vardą.

Tada spustelėkite, norėdami matyti oro stebėjimo ir prognozės.

Norėdami pakeisti žemėlapį: spustelėkite ant žalios mygtukų su juodo kryžiaus žemyn,; žalią mygtuką su brūkšneliu, jei norite nutolinti; arba žalių rodyklių gretimoms žemėlapius.


METAR-TAF: